createdAt,value
2022-11-21T00:01:28.716Z,-0.80
2022-11-21T00:03:55.214Z,-0.74
2022-11-21T00:06:23.518Z,-0.69
2022-11-21T00:08:50.264Z,-0.66
2022-11-21T00:11:16.902Z,-0.67
2022-11-21T00:13:43.938Z,-0.69
2022-11-21T00:16:13.759Z,-0.64
2022-11-21T00:18:40.532Z,-0.60
2022-11-21T00:21:10.194Z,-0.61
2022-11-21T00:23:36.869Z,-0.57
2022-11-21T00:26:13.808Z,-0.72
2022-11-21T00:28:40.412Z,-0.67
2022-11-21T00:31:07.266Z,-0.65
2022-11-21T00:33:38.680Z,-0.65
2022-11-21T00:36:12.054Z,-0.67
2022-11-21T00:38:38.520Z,-0.69
2022-11-21T00:41:05.848Z,-0.66
2022-11-21T00:43:32.584Z,-0.66
2022-11-21T00:46:01.459Z,-0.66
2022-11-21T00:48:28.968Z,-0.70
2022-11-21T00:50:55.598Z,-0.73
2022-11-21T00:53:22.066Z,-0.71
2022-11-21T00:55:48.970Z,-0.68
2022-11-21T00:58:15.430Z,-0.65
2022-11-21T01:00:42.225Z,-0.61
2022-11-21T01:03:08.785Z,-0.62
2022-11-21T01:05:35.242Z,-0.67
2022-11-21T01:08:07.442Z,-0.70
2022-11-21T01:10:35.829Z,-0.72
2022-11-21T01:13:02.879Z,-0.68
2022-11-21T01:15:30.423Z,-0.71
2022-11-21T01:17:56.943Z,-0.67
2022-11-21T01:20:23.495Z,-0.64
2022-11-21T01:22:50.023Z,-0.63
2022-11-21T01:25:16.532Z,-0.62
2022-11-21T01:27:43.036Z,-0.62
2022-11-21T01:30:13.300Z,-0.65
2022-11-21T01:32:39.902Z,-0.65
2022-11-21T01:35:09.659Z,-0.69
2022-11-21T01:37:36.176Z,-0.69
2022-11-21T01:40:03.331Z,-0.70
2022-11-21T01:42:29.807Z,-0.69
2022-11-21T01:44:56.374Z,-0.65
2022-11-21T01:47:23.575Z,-0.62
2022-11-21T01:49:51.658Z,-0.62
2022-11-21T01:52:28.780Z,-0.66
2022-11-21T01:55:02.156Z,-0.62
2022-11-21T01:57:33.281Z,-0.67
2022-11-21T02:00:06.781Z,-0.63
2022-11-21T02:02:36.551Z,-0.65
2022-11-21T02:05:07.736Z,-0.69
2022-11-21T02:07:38.643Z,-0.68
2022-11-21T02:10:10.066Z,-0.69
2022-11-21T02:12:58.667Z,-0.73
2022-11-21T02:15:27.735Z,-0.70
2022-11-21T02:17:54.503Z,-0.69
2022-11-21T02:20:25.970Z,-0.68
2022-11-21T02:23:01.645Z,-0.56
2022-11-21T02:25:30.788Z,-0.48
2022-11-21T02:28:03.854Z,-0.43
2022-11-21T02:30:32.583Z,-0.48
2022-11-21T02:32:59.334Z,-0.44
2022-11-21T02:35:25.921Z,-0.37
2022-11-21T02:38:06.439Z,-0.46
2022-11-21T02:40:38.129Z,-0.45
2022-11-21T02:43:13.387Z,-0.38
2022-11-21T02:45:42.329Z,-0.36
2022-11-21T02:48:09.654Z,-0.32
2022-11-21T02:50:38.585Z,-0.40
2022-11-21T02:53:07.005Z,-0.39
2022-11-21T02:55:33.524Z,-0.37
2022-11-21T02:58:04.644Z,-0.41
2022-11-21T03:00:32.358Z,-0.42
2022-11-21T03:02:58.887Z,-0.48
2022-11-21T03:05:25.427Z,-0.39
2022-11-21T03:07:51.933Z,-0.32
2022-11-21T03:10:18.499Z,-0.42
2022-11-21T03:12:44.968Z,-0.58
2022-11-21T03:15:15.488Z,-0.66
2022-11-21T03:17:42.678Z,-0.68
2022-11-21T03:20:10.637Z,-0.64
2022-11-21T03:22:37.167Z,-0.63
2022-11-21T03:25:04.110Z,-0.66
2022-11-21T03:27:30.564Z,-0.71
2022-11-21T03:29:57.044Z,-0.74
2022-11-21T03:32:23.520Z,-0.73
2022-11-21T03:34:52.109Z,-0.72
2022-11-21T03:37:18.745Z,-0.68
2022-11-21T03:39:45.195Z,-0.64
2022-11-21T03:42:11.697Z,-0.65
2022-11-21T03:44:38.137Z,-0.63
2022-11-21T03:47:04.710Z,-0.57
2022-11-21T03:49:31.165Z,-0.61
2022-11-21T03:51:57.676Z,-0.62
2022-11-21T03:54:24.159Z,-0.64
2022-11-21T03:56:50.612Z,-0.69
2022-11-21T03:59:17.220Z,-0.69
2022-11-21T04:01:43.956Z,-0.70
2022-11-21T04:04:10.452Z,-0.74
2022-11-21T04:06:36.892Z,-0.76
2022-11-21T04:09:03.589Z,-0.84
2022-11-21T04:11:30.106Z,-0.85
2022-11-21T04:13:56.626Z,-0.92
2022-11-21T04:16:23.059Z,-0.95
2022-11-21T04:18:49.656Z,-0.97
2022-11-21T04:21:16.105Z,-0.97
2022-11-21T04:23:45.316Z,-0.91
2022-11-21T04:26:11.924Z,-0.84
2022-11-21T04:28:38.374Z,-0.78
2022-11-21T04:31:10.476Z,-0.71
2022-11-21T04:33:38.726Z,-0.68
2022-11-21T04:36:06.088Z,-0.69
2022-11-21T04:38:32.541Z,-0.65
2022-11-21T04:40:59.013Z,-0.60
2022-11-21T04:43:28.909Z,-0.60
2022-11-21T04:45:55.390Z,-0.67
2022-11-21T04:48:21.861Z,-0.73
2022-11-21T04:50:48.683Z,-0.81
2022-11-21T04:53:15.181Z,-0.87
2022-11-21T04:55:41.766Z,-0.80
2022-11-21T04:58:08.247Z,-0.78
2022-11-21T05:00:34.853Z,-0.71
2022-11-21T05:03:05.459Z,-0.79
2022-11-21T05:05:32.461Z,-0.83
2022-11-21T05:07:58.981Z,-0.79
2022-11-21T05:10:25.649Z,-0.83
2022-11-21T05:13:18.384Z,-0.84
2022-11-21T05:15:48.263Z,-0.85
2022-11-21T05:18:14.749Z,-0.86
2022-11-21T05:20:41.239Z,-0.85
2022-11-21T05:23:07.761Z,-0.91
2022-11-21T05:25:34.222Z,-0.87
2022-11-21T05:28:00.697Z,-0.83
2022-11-21T05:30:27.196Z,-0.82
2022-11-21T05:32:53.724Z,-0.82
2022-11-21T05:35:20.236Z,-0.79
2022-11-21T05:37:46.756Z,-0.75
2022-11-21T05:40:13.623Z,-0.79
2022-11-21T05:43:00.669Z,-0.81
2022-11-21T05:45:27.403Z,-0.78
2022-11-21T05:47:53.948Z,-0.76
2022-11-21T05:50:20.435Z,-0.77
2022-11-21T05:52:46.905Z,-0.82
2022-11-21T05:55:13.469Z,-0.79
2022-11-21T05:57:39.920Z,-0.80
2022-11-21T06:00:06.950Z,-0.78
2022-11-21T06:02:52.119Z,-0.71
2022-11-21T06:05:18.650Z,-0.75
2022-11-21T06:07:45.361Z,-0.74
2022-11-21T06:10:11.859Z,-0.72
2022-11-21T06:12:38.317Z,-0.74
2022-11-21T06:15:04.980Z,-0.77
2022-11-21T06:17:32.590Z,-0.74
2022-11-21T06:19:59.137Z,-0.71
2022-11-21T06:22:25.609Z,-0.68
2022-11-21T06:24:52.123Z,-0.68
2022-11-21T06:27:18.674Z,-0.62
2022-11-21T06:29:45.128Z,-0.65
2022-11-21T06:32:11.766Z,-0.62
2022-11-21T06:34:38.288Z,-0.66
2022-11-21T06:37:04.807Z,-0.57
2022-11-21T06:39:31.263Z,-0.53
2022-11-21T06:41:58.962Z,-0.46
2022-11-21T06:44:25.655Z,-0.41
2022-11-21T06:46:52.415Z,-0.38
2022-11-21T06:49:18.960Z,-0.36
2022-11-21T06:51:45.440Z,-0.36
2022-11-21T06:54:16.525Z,-0.32
2022-11-21T06:56:43.640Z,-0.35
2022-11-21T06:59:10.185Z,-0.40
2022-11-21T07:01:36.703Z,-0.51
2022-11-21T07:04:03.376Z,-0.53
2022-11-21T07:06:29.873Z,-0.50
2022-11-21T07:09:25.183Z,-0.44
2022-11-21T07:11:43.233Z,-0.42
2022-11-21T07:14:10.056Z,-0.46
2022-11-21T07:16:36.718Z,-0.54
2022-11-21T07:19:03.318Z,-0.60
2022-11-21T07:21:29.907Z,-0.53
2022-11-21T07:23:56.448Z,-0.49
2022-11-21T07:26:22.922Z,-0.48
2022-11-21T07:28:49.371Z,-0.52
2022-11-21T07:31:15.865Z,-0.50
2022-11-21T07:33:46.635Z,-0.46
2022-11-21T07:36:13.508Z,-0.49
2022-11-21T07:38:41.399Z,-0.45
2022-11-21T07:41:08.785Z,-0.45
2022-11-21T07:43:35.259Z,-0.56
2022-11-21T07:46:01.859Z,-0.58
2022-11-21T07:48:28.327Z,-0.60
2022-11-21T07:50:54.838Z,-0.54
2022-11-21T07:53:21.360Z,-0.54
2022-11-21T07:55:47.809Z,-0.58
2022-11-21T07:58:16.413Z,-0.57
2022-11-21T08:00:43.242Z,-0.58
2022-11-21T08:03:13.940Z,-0.58
2022-11-21T08:05:44.548Z,-0.54
2022-11-21T08:08:12.783Z,-0.35
2022-11-21T08:10:41.345Z,-0.32
2022-11-21T08:13:08.150Z,-0.41
2022-11-21T08:15:34.631Z,-0.50
2022-11-21T08:18:14.761Z,-0.38
2022-11-21T08:20:41.936Z,-0.37
2022-11-21T08:23:09.936Z,-0.22
2022-11-21T08:25:41.249Z,-0.14
2022-11-21T08:28:09.533Z,0.05
2022-11-21T08:30:37.096Z,0.40
2022-11-21T08:33:04.181Z,0.61
2022-11-21T08:35:30.997Z,0.49
2022-11-21T08:37:59.048Z,0.19
2022-11-21T08:40:27.458Z,-0.08
2022-11-21T08:43:10.517Z,-0.17
2022-11-21T08:45:39.223Z,0.04
2022-11-21T08:48:11.446Z,0.23
2022-11-21T08:50:37.980Z,0.53
2022-11-21T08:53:04.482Z,0.56
2022-11-21T08:55:31.135Z,0.61
2022-11-21T08:57:58.515Z,0.61
2022-11-21T09:00:25.285Z,0.49
2022-11-21T09:02:51.743Z,0.45
2022-11-21T09:05:18.236Z,0.48
2022-11-21T09:07:44.841Z,0.75
2022-11-21T09:10:11.762Z,0.92
2022-11-21T09:12:38.306Z,0.92
2022-11-21T09:15:24.436Z,1.04
2022-11-21T09:18:07.114Z,0.88
2022-11-21T09:20:40.238Z,0.71
2022-11-21T09:23:14.999Z,0.76
2022-11-21T09:25:41.831Z,0.80
2022-11-21T09:28:10.164Z,0.80
2022-11-21T09:30:37.016Z,0.93
2022-11-21T09:33:06.228Z,1.02
2022-11-21T09:35:33.205Z,1.03
2022-11-21T09:38:00.368Z,0.98
2022-11-21T09:40:29.337Z,1.04
2022-11-21T09:43:35.972Z,1.21
2022-11-21T09:46:14.968Z,1.23
2022-11-21T09:48:57.617Z,1.02
2022-11-21T09:51:25.877Z,1.22
2022-11-21T09:54:03.809Z,1.11
2022-11-21T09:56:35.270Z,1.40
2022-11-21T09:59:20.514Z,1.72
2022-11-21T10:01:47.339Z,1.53
2022-11-21T10:04:14.165Z,1.63
2022-11-21T10:07:00.905Z,1.71
2022-11-21T10:09:49.508Z,1.60
2022-11-21T10:12:37.115Z,1.37
2022-11-21T10:15:03.875Z,1.67
2022-11-21T10:17:53.445Z,2.02
2022-11-21T10:20:28.920Z,2.26
2022-11-21T10:23:34.221Z,2.13
2022-11-21T10:26:50.188Z,1.79
2022-11-21T10:29:28.093Z,1.53
2022-11-21T10:31:58.537Z,1.34
2022-11-21T10:34:37.187Z,1.27
2022-11-21T10:37:15.595Z,1.30
2022-11-21T10:39:49.571Z,1.25
2022-11-21T10:42:45.110Z,1.20
2022-11-21T10:45:16.773Z,1.17
2022-11-21T10:47:44.842Z,1.19
2022-11-21T10:50:34.088Z,1.19
2022-11-21T10:53:29.463Z,1.23
2022-11-21T10:56:01.768Z,1.19
2022-11-21T10:58:42.626Z,1.17
2022-11-21T11:01:24.416Z,1.16
2022-11-21T11:04:27.253Z,1.11
2022-11-21T11:06:54.690Z,1.10
2022-11-21T11:09:34.868Z,1.06
2022-11-21T11:12:49.729Z,1.13
2022-11-21T11:15:22.840Z,1.13
2022-11-21T11:18:07.371Z,1.17
2022-11-21T11:20:40.433Z,1.22
2022-11-21T11:23:28.047Z,1.14
2022-11-21T11:25:59.517Z,1.09
2022-11-21T11:28:34.034Z,1.08
2022-11-21T11:31:01.223Z,1.16
2022-11-21T11:33:39.678Z,1.25
2022-11-21T11:36:15.275Z,1.18
2022-11-21T11:38:47.088Z,1.15
2022-11-21T11:42:03.415Z,1.18
2022-11-21T11:45:06.306Z,1.27
2022-11-21T11:47:41.830Z,1.30
2022-11-21T11:50:26.881Z,1.36
2022-11-21T11:53:02.579Z,1.33
2022-11-21T11:55:53.221Z,1.35
2022-11-21T11:58:41.765Z,1.31
2022-11-21T12:01:12.649Z,1.37
2022-11-21T12:03:58.326Z,1.50
2022-11-21T12:07:04.174Z,1.50
2022-11-21T12:09:22.044Z,1.39
2022-11-21T12:12:15.706Z,1.31
2022-11-21T12:15:48.504Z,1.28
2022-11-21T12:18:23.523Z,1.26
2022-11-21T12:20:59.451Z,1.27
2022-11-21T12:23:42.324Z,1.24
2022-11-21T12:26:20.481Z,1.24
2022-11-21T12:29:17.323Z,1.18
2022-11-21T12:31:49.380Z,1.15
2022-11-21T12:34:27.911Z,1.12
2022-11-21T12:37:03.308Z,1.11
2022-11-21T12:40:17.929Z,1.05
2022-11-21T12:42:58.724Z,1.11
2022-11-21T12:45:32.091Z,1.23
2022-11-21T12:48:29.525Z,1.26
2022-11-21T12:51:28.855Z,1.23
2022-11-21T12:54:24.530Z,1.19
2022-11-21T12:57:01.932Z,1.17
2022-11-21T12:59:31.177Z,1.20
2022-11-21T13:02:08.811Z,1.21
2022-11-21T13:04:38.890Z,1.23
2022-11-21T13:07:06.689Z,1.24
2022-11-21T13:09:46.526Z,1.25
2022-11-21T13:12:40.840Z,1.29
2022-11-21T13:15:24.421Z,1.29
2022-11-21T13:17:57.898Z,1.34
2022-11-21T13:20:40.228Z,1.33
2022-11-21T13:23:42.021Z,1.31
2022-11-21T13:26:29.587Z,1.40
2022-11-21T13:29:13.779Z,1.44
2022-11-21T13:31:41.249Z,1.42
2022-11-21T13:34:38.344Z,1.46
2022-11-21T13:37:05.727Z,1.46
2022-11-21T13:39:36.889Z,1.43
2022-11-21T13:42:24.659Z,1.42
2022-11-21T13:44:51.624Z,1.35
2022-11-21T13:47:57.194Z,1.30
2022-11-21T13:50:59.206Z,1.27
2022-11-21T13:53:51.055Z,1.29
2022-11-21T13:56:47.171Z,1.34
2022-11-21T13:59:22.818Z,1.33
2022-11-21T14:02:00.278Z,1.30
2022-11-21T14:04:46.998Z,1.23
2022-11-21T14:07:23.920Z,1.21
2022-11-21T14:09:52.713Z,1.17
2022-11-21T14:12:33.088Z,1.15
2022-11-21T14:15:00.979Z,1.14
2022-11-21T14:17:50.161Z,1.07
2022-11-21T14:20:27.255Z,1.07
2022-11-21T14:23:06.218Z,1.03
2022-11-21T14:25:41.427Z,1.00
2022-11-21T14:28:33.105Z,0.95
2022-11-21T14:31:02.128Z,0.88
2022-11-21T14:33:34.406Z,0.87
2022-11-21T14:36:12.869Z,0.78
2022-11-21T14:38:50.954Z,0.69
2022-11-21T14:41:26.946Z,0.65
2022-11-21T14:44:03.116Z,0.66
2022-11-21T14:46:40.699Z,0.71
2022-11-21T14:49:10.089Z,0.65
2022-11-21T14:51:36.950Z,0.55
2022-11-21T14:54:03.648Z,0.48
2022-11-21T14:56:32.159Z,0.44
2022-11-21T14:59:03.479Z,0.46
2022-11-21T15:01:32.384Z,0.53
2022-11-21T15:03:59.326Z,0.56
2022-11-21T15:06:29.960Z,0.48
2022-11-21T15:10:11.569Z,0.43
2022-11-21T15:12:05.169Z,0.48
2022-11-21T15:14:58.366Z,0.52
2022-11-21T15:17:26.344Z,0.56
2022-11-21T15:20:11.717Z,0.52
2022-11-21T15:22:41.325Z,0.48
2022-11-21T15:25:15.632Z,0.56
2022-11-21T15:27:43.351Z,0.57
2022-11-21T15:30:09.760Z,0.53
2022-11-21T15:33:02.974Z,0.58
2022-11-21T15:35:38.601Z,0.63
2022-11-21T15:38:30.201Z,0.59
2022-11-21T15:40:57.271Z,0.61
2022-11-21T15:44:14.909Z,0.63
2022-11-21T15:46:44.949Z,0.72
2022-11-21T15:49:32.083Z,0.72
2022-11-21T15:54:47.309Z,0.79
2022-11-21T15:57:14.293Z,0.71
2022-11-21T15:57:16.719Z,0.82
2022-11-21T15:59:43.733Z,0.82
2022-11-21T16:02:12.840Z,0.80
2022-11-21T16:04:39.444Z,0.77
2022-11-21T16:07:05.980Z,0.74
2022-11-21T16:09:33.124Z,0.75
2022-11-21T16:11:59.577Z,0.75
2022-11-21T16:14:26.063Z,0.72
2022-11-21T16:16:52.560Z,0.72
2022-11-21T16:19:19.001Z,0.72
2022-11-21T16:21:45.551Z,0.72
2022-11-21T16:24:12.003Z,0.73
2022-11-21T16:26:38.597Z,0.73
2022-11-21T16:29:08.244Z,0.74
2022-11-21T16:31:34.880Z,0.73
2022-11-21T16:34:01.679Z,0.75
2022-11-21T16:36:31.008Z,0.76
2022-11-21T16:39:01.824Z,0.81
2022-11-21T16:41:32.002Z,0.80
2022-11-21T16:43:58.763Z,0.86
2022-11-21T16:46:25.962Z,0.92
2022-11-21T16:48:59.857Z,0.90
2022-11-21T16:51:27.265Z,0.83
2022-11-21T16:53:54.351Z,0.77
2022-11-21T16:56:20.883Z,0.73
2022-11-21T16:58:47.391Z,0.75
2022-11-21T17:01:19.850Z,0.75
2022-11-21T17:03:51.164Z,0.76
2022-11-21T17:06:21.646Z,0.78
2022-11-21T17:08:48.425Z,0.76
2022-11-21T17:11:16.216Z,0.72
2022-11-21T17:13:43.960Z,0.70
2022-11-21T17:16:15.515Z,0.63
2022-11-21T17:18:42.595Z,0.58
2022-11-21T17:21:11.716Z,0.52
2022-11-21T17:23:40.378Z,0.48
2022-11-21T17:26:18.083Z,0.55
2022-11-21T17:28:50.402Z,0.54
2022-11-21T17:31:16.869Z,0.47
2022-11-21T17:33:44.175Z,0.41
2022-11-21T17:36:14.862Z,0.37
2022-11-21T17:38:43.064Z,0.42
2022-11-21T17:41:12.769Z,0.46
2022-11-21T17:43:39.505Z,0.40
2022-11-21T17:46:11.165Z,0.37
2022-11-21T17:48:38.484Z,0.37
2022-11-21T17:51:25.572Z,0.31
2022-11-21T17:53:52.976Z,0.23
2022-11-21T17:56:22.272Z,0.14
2022-11-21T17:58:49.657Z,0.11
2022-11-21T18:01:19.655Z,0.13
2022-11-21T18:03:53.082Z,0.08
2022-11-21T18:06:19.705Z,0.00
2022-11-21T18:08:48.281Z,-0.04
2022-11-21T18:11:21.094Z,-0.09
2022-11-21T18:13:48.575Z,-0.07
2022-11-21T18:16:19.034Z,-0.01
2022-11-21T18:18:45.615Z,0.03
2022-11-21T18:21:15.321Z,0.14
2022-11-21T18:23:43.976Z,0.12
2022-11-21T18:26:17.576Z,-0.06
2022-11-21T18:28:44.034Z,0.01
2022-11-21T18:31:22.603Z,-0.04
2022-11-21T18:33:54.160Z,-0.07
2022-11-21T18:36:21.789Z,-0.04
2022-11-21T18:38:53.711Z,-0.13
2022-11-21T18:41:27.002Z,-0.07
2022-11-21T18:43:59.023Z,-0.02
2022-11-21T18:46:27.318Z,0.02
2022-11-21T18:49:04.289Z,-0.09
2022-11-21T18:51:32.512Z,-0.12
2022-11-21T18:54:03.992Z,-0.19
2022-11-21T18:56:31.032Z,-0.20
2022-11-21T18:59:00.543Z,-0.24
2022-11-21T19:01:29.162Z,-0.21
2022-11-21T19:03:56.719Z,-0.26
2022-11-21T19:06:24.952Z,-0.17
2022-11-21T19:08:53.510Z,-0.15
2022-11-21T19:11:22.236Z,-0.20
2022-11-21T19:13:48.919Z,-0.36
2022-11-21T19:16:18.592Z,-0.40
2022-11-21T19:18:59.774Z,-0.48
2022-11-21T19:21:36.081Z,-0.54
2022-11-21T19:24:02.888Z,-0.63
2022-11-21T19:26:31.017Z,-0.64
2022-11-21T19:29:00.592Z,-0.56
2022-11-21T19:31:27.039Z,-0.45
2022-11-21T19:33:53.558Z,-0.46
2022-11-21T19:36:22.047Z,-0.38
2022-11-21T19:38:51.195Z,-0.51
2022-11-21T19:41:25.761Z,-0.54
2022-11-21T19:43:54.341Z,-0.62
2022-11-21T19:46:26.716Z,-0.66
2022-11-21T19:48:55.490Z,-0.79
2022-11-21T19:51:24.876Z,-0.81
2022-11-21T19:53:53.829Z,-0.82
2022-11-21T19:56:22.691Z,-0.82
2022-11-21T19:58:49.321Z,-0.95
2022-11-21T20:01:18.313Z,-0.96
2022-11-21T20:03:50.720Z,-1.00
2022-11-21T20:06:25.642Z,-0.94
2022-11-21T20:08:57.312Z,-0.95
2022-11-21T20:11:25.346Z,-0.97
2022-11-21T20:13:52.323Z,-0.93
2022-11-21T20:16:24.842Z,-0.89
2022-11-21T20:18:52.361Z,-0.94
2022-11-21T20:21:19.799Z,-0.86
2022-11-21T20:23:47.141Z,-0.49
2022-11-21T20:26:15.454Z,0.09
2022-11-21T20:28:45.168Z,0.19
2022-11-21T20:31:14.895Z,0.27
2022-11-21T20:33:43.743Z,0.46
2022-11-21T20:36:17.298Z,0.69
2022-11-21T20:38:45.183Z,0.51
2022-11-21T20:41:11.978Z,0.31
2022-11-21T20:44:20.061Z,0.14
2022-11-21T20:46:25.816Z,0.03
2022-11-21T20:48:52.928Z,-0.09
2022-11-21T20:54:06.440Z,-0.18
2022-11-21T20:56:34.602Z,-0.15
2022-11-21T20:59:01.382Z,-0.13
2022-11-21T21:01:30.789Z,-0.06
2022-11-21T21:03:57.465Z,-0.09
2022-11-21T21:06:24.267Z,-0.14
2022-11-21T21:08:51.898Z,-0.05
2022-11-21T21:11:49.698Z,-0.05
2022-11-21T21:14:07.814Z,-0.03
2022-11-21T21:16:34.407Z,0.02
2022-11-21T21:19:01.074Z,-0.05
2022-11-21T21:21:30.504Z,-0.11
2022-11-21T21:24:09.175Z,-0.09
2022-11-21T21:26:42.105Z,-0.16
2022-11-21T21:29:11.728Z,-0.34
2022-11-21T21:31:38.178Z,-0.53
2022-11-21T21:34:04.712Z,-0.57
2022-11-21T21:36:32.151Z,-0.55
2022-11-21T21:39:00.258Z,-0.42
2022-11-21T21:41:28.617Z,-0.34
2022-11-21T21:43:56.228Z,-0.31
2022-11-21T21:46:25.508Z,-0.28
2022-11-21T21:48:55.787Z,-0.26
2022-11-21T21:51:23.661Z,-0.34
2022-11-21T21:53:51.862Z,-0.38
2022-11-21T21:56:20.507Z,-0.44
2022-11-21T21:58:48.975Z,-0.31
2022-11-21T22:01:21.078Z,-0.29
2022-11-21T22:03:48.447Z,-0.27
2022-11-21T22:06:17.484Z,-0.32
2022-11-21T22:08:45.652Z,-0.31
2022-11-21T22:11:14.658Z,-0.25
2022-11-21T22:13:44.901Z,-0.17
2022-11-21T22:16:15.423Z,-0.13
2022-11-21T22:18:42.380Z,-0.07
2022-11-21T22:21:20.491Z,-0.01
2022-11-21T22:26:37.649Z,0.01
2022-11-21T22:29:04.182Z,0.01
2022-11-21T22:31:31.532Z,-0.01
2022-11-21T22:33:58.791Z,-0.02
2022-11-21T22:36:25.521Z,-0.02
2022-11-21T22:38:56.329Z,-0.02
2022-11-21T22:41:25.590Z,-0.01
2022-11-21T22:43:54.819Z,-0.06
2022-11-21T22:46:22.616Z,-0.08
2022-11-21T22:48:49.229Z,-0.05
2022-11-21T22:51:19.011Z,-0.04
2022-11-21T22:53:46.654Z,0.07
2022-11-21T22:56:15.290Z,0.10
2022-11-21T22:58:45.937Z,0.07
2022-11-21T23:01:18.711Z,0.07
2022-11-21T23:03:45.917Z,0.11
2022-11-21T23:06:18.355Z,0.09
2022-11-21T23:08:45.432Z,0.08
2022-11-21T23:11:17.178Z,0.08
2022-11-21T23:13:45.428Z,0.05
2022-11-21T23:16:13.164Z,0.06
2022-11-21T23:18:40.197Z,0.09
2022-11-21T23:21:06.922Z,0.13
2022-11-21T23:23:37.073Z,0.09
2022-11-21T23:26:04.833Z,0.12
2022-11-21T23:28:31.305Z,0.09
2022-11-21T23:30:58.099Z,0.03
2022-11-21T23:33:25.521Z,-0.02
2022-11-21T23:35:52.039Z,0.00
2022-11-21T23:38:19.147Z,-0.02
2022-11-21T23:40:46.736Z,-0.02
2022-11-21T23:43:14.555Z,0.01
2022-11-21T23:45:41.593Z,0.07
2022-11-21T23:48:08.493Z,0.09
2022-11-21T23:50:35.086Z,0.11
2022-11-21T23:53:01.896Z,0.12
2022-11-21T23:55:28.392Z,0.15
2022-11-21T23:57:54.990Z,0.12
